Weather at Miroslawiec Military Air Base

Public forecast

Using degrees Celsius for public forecast. Weather courtesy of forecast.io.

Closest aviation weather report (METAR) to Miroslawiec Military Air Base

Closest report is Szczecin-Goleniów "Solidarność" Airport, 43.7 nm (80.9 km) WNW.

2022/11/30 11:00 (retrieved 33 minutes ago)

EPSC 301100Z 10007KT 070V130 7000 BKN010 03/00 Q1027

Closest aviation forecast (TAF) to Miroslawiec Military Air Base

Closest forecast is Szczecin-Goleniów "Solidarność" Airport, 43.7 nm (80.9 km) WNW.

2022/11/30 08:48 Ammendment (retrieved 3 hours ago)

TAF AMD TAF AMD EPSC 300836Z 3008/0106 12010KT 6000 BKN013 TEMPO 3008/3012 4000 BR OVC008 PROB40 3008/3016 BKN030 TEMPO 3020/0106 4000 BR OVC008